Time;durP1;ratioP1;P1;durP2;ratioP2;P2;SDS_P1;SDS_P2;PMS_P1;PMS_P2;Temp;Humidity;BMP_temperature;BMP_pressure;BME280_temperature;BME280_humidity;BME280_pressure;Samples;Min_cycle;Max_cycle;Signal;HPM_P1;HPM_P2
2023/06/24 00:00:44;;;;;;;;;;;20.40;68.00;;;;;;5075033;28;20272;-34
2023/06/24 00:03:12;;;;;;;;;;;20.40;68.20;;;;;;5074610;28;20003;-33
2023/06/24 00:05:38;;;;;;;;;;;20.30;68.30;;;;;;5074590;28;19920;-33
2023/06/24 00:08:06;;;;;;;;;;;20.40;68.30;;;;;;5074840;28;19913;-32
2023/06/24 00:10:32;;;;;;;;;;;20.40;68.30;;;;;;5074679;28;19913;-31
2023/06/24 00:13:01;;;;;;;;;;;20.40;68.30;;;;;;5074585;28;19908;-34
2023/06/24 00:15:26;;;;;;;;;;;20.40;68.30;;;;;;5056651;28;19936;-38
2023/06/24 00:17:52;;;;;;;;;;;20.30;68.30;;;;;;5074423;28;20390;-38
2023/06/24 00:20:19;;;;;;;;;;;20.40;68.40;;;;;;5073746;28;19915;-34
2023/06/24 00:22:48;;;;;;;;;;;20.30;68.50;;;;;;5074344;28;19920;-39
2023/06/24 00:25:14;;;;;;;;;;;20.30;68.60;;;;;;5074162;28;19962;-35
2023/06/24 00:27:40;;;;;;;;;;;20.30;69.30;;;;;;5074221;28;19944;-40
2023/06/24 00:30:06;;;;;;;;;;;20.30;68.70;;;;;;5074169;28;19913;-35
2023/06/24 00:32:31;;;;;;;;;;;20.30;68.70;;;;;;5074507;28;19915;-39
2023/06/24 00:34:59;;;;;;;;;;;20.30;68.80;;;;;;5074218;28;19908;-40
2023/06/24 00:37:25;;;;;;;;;;;20.30;68.80;;;;;;5073951;28;19962;-31
2023/06/24 00:39:51;;;;;;;;;;;20.30;68.90;;;;;;5074026;28;19909;-31
2023/06/24 00:42:17;;;;;;;;;;;20.30;68.90;;;;;;5055902;28;19908;-33
2023/06/24 00:44:42;;;;;;;;;;;20.30;68.90;;;;;;5073911;28;19909;-31
2023/06/24 00:47:08;;;;;;;;;;;20.30;69.00;;;;;;5074008;28;19958;-32
2023/06/24 00:49:34;;;;;;;;;;;20.30;69.00;;;;;;5073690;28;20293;-31
2023/06/24 00:52:00;;;;;;;;;;;20.30;69.10;;;;;;5074043;28;20275;-32
2023/06/24 00:54:30;;;;;;;;;;;20.30;69.10;;;;;;5073765;28;19915;-40
2023/06/24 00:56:56;;;;;;;;;;;20.30;69.10;;;;;;5073765;28;19923;-34
2023/06/24 00:59:22;;;;;;;;;;;20.30;69.10;;;;;;5073618;28;19910;-31
2023/06/24 01:01:49;;;;;;;;;;;20.40;69.10;;;;;;5073566;28;19909;-37
2023/06/24 01:04:16;;;;;;;;;;;20.40;69.20;;;;;;5073561;28;19912;-33
2023/06/24 01:06:45;;;;;;;;;;;20.40;69.20;;;;;;5073580;28;19909;-31
2023/06/24 01:09:10;;;;;;;;;;;20.30;69.20;;;;;;5073375;28;20449;-32
2023/06/24 01:11:36;;;;;;;;;;;20.40;69.30;;;;;;5073398;28;19908;-32
2023/06/24 01:14:01;;;;;;;;;;;20.30;69.20;;;;;;5073377;28;19958;-32
2023/06/24 01:16:34;;;;;;;;;;;20.30;69.40;;;;;;5073262;28;19909;-34
2023/06/24 01:19:08;;;;;;;;;;;20.30;69.50;;;;;;5073499;28;20382;-34
2023/06/24 01:21:41;;;;;;;;;;;20.20;69.50;;;;;;5073174;28;19951;-36
2023/06/24 01:24:06;;;;;;;;;;;20.20;69.60;;;;;;5073010;28;20015;-32
2023/06/24 01:26:47;;;;;;;;;;;20.20;69.70;;;;;;5072841;28;19974;-31
2023/06/24 01:29:27;;;;;;;;;;;20.10;69.70;;;;;;5072903;28;19909;-33
2023/06/24 01:32:13;;;;;;;;;;;20.10;69.80;;;;;;5072055;28;20264;-31
2023/06/24 01:34:58;;;;;;;;;;;20.10;69.90;;;;;;5072290;28;19940;-33
2023/06/24 01:37:42;;;;;;;;;;;20.00;69.80;;;;;;5072822;28;19958;-33
2023/06/24 01:40:09;;;;;;;;;;;20.00;70.00;;;;;;5072836;28;19962;-34
2023/06/24 01:42:42;;;;;;;;;;;19.90;70.00;;;;;;5072711;28;19912;-36
2023/06/24 01:45:10;;;;;;;;;;;19.90;70.10;;;;;;5072779;28;20338;-39
2023/06/24 01:47:37;;;;;;;;;;;19.90;70.20;;;;;;5072638;28;19924;-34
2023/06/24 01:50:03;;;;;;;;;;;19.90;70.20;;;;;;5072539;28;19912;-36
2023/06/24 01:52:30;;;;;;;;;;;19.90;70.20;;;;;;5072417;28;19958;-31
2023/06/24 01:54:56;;;;;;;;;;;19.90;70.30;;;;;;5072481;28;19955;-32
2023/06/24 01:57:22;;;;;;;;;;;19.90;70.40;;;;;;5072457;28;20364;-31
2023/06/24 01:59:48;;;;;;;;;;;19.90;70.50;;;;;;5072368;28;19908;-31
2023/06/24 02:02:14;;;;;;;;;;;19.90;70.60;;;;;;5072185;28;19999;-31
2023/06/24 02:04:40;;;;;;;;;;;19.90;70.70;;;;;;5072278;28;19904;-31
2023/06/24 02:07:06;;;;;;;;;;;19.80;70.70;;;;;;5072258;28;19912;-31
2023/06/24 02:09:32;;;;;;;;;;;19.80;70.70;;;;;;5072256;28;19920;-31
2023/06/24 02:11:58;;;;;;;;;;;19.80;70.80;;;;;;5072625;28;19908;-32
2023/06/24 02:14:25;;;;;;;;;;;19.80;70.80;;;;;;5072173;28;19912;-32
2023/06/24 02:16:56;;;;;;;;;;;19.80;70.80;;;;;;5072156;28;20380;-40
2023/06/24 02:19:22;;;;;;;;;;;19.80;70.90;;;;;;5072157;28;19908;-33
2023/06/24 02:21:48;;;;;;;;;;;19.80;71.00;;;;;;5072187;28;20003;-33
2023/06/24 02:24:14;;;;;;;;;;;19.80;71.00;;;;;;5072406;28;19958;-32
2023/06/24 02:26:40;;;;;;;;;;;19.80;71.10;;;;;;5071701;28;20402;-35
2023/06/24 02:29:08;;;;;;;;;;;19.70;71.10;;;;;;5072410;28;19913;-31
2023/06/24 02:31:33;;;;;;;;;;;19.70;71.20;;;;;;5071887;28;19916;-31
2023/06/24 02:33:59;;;;;;;;;;;19.70;71.30;;;;;;5071997;28;19978;-33
2023/06/24 02:36:24;;;;;;;;;;;19.70;71.40;;;;;;5071881;28;19927;-31
2023/06/24 02:38:50;;;;;;;;;;;19.70;71.40;;;;;;5071833;28;19912;-31
2023/06/24 02:41:15;;;;;;;;;;;19.70;71.50;;;;;;5071968;28;19913;-31
2023/06/24 02:43:41;;;;;;;;;;;19.60;71.50;;;;;;5071434;28;19913;-31
2023/06/24 02:46:07;;;;;;;;;;;19.60;71.50;;;;;;5071993;28;19912;-31
2023/06/24 02:48:34;;;;;;;;;;;19.60;71.60;;;;;;5072098;28;19912;-30
2023/06/24 02:51:00;;;;;;;;;;;19.60;71.70;;;;;;5053638;28;20415;-30
2023/06/24 02:53:27;;;;;;;;;;;19.60;71.80;;;;;;5071842;28;19912;-34
2023/06/24 02:55:54;;;;;;;;;;;19.50;71.80;;;;;;5071841;28;20398;-34
2023/06/24 02:58:20;;;;;;;;;;;19.50;72.00;;;;;;5053755;28;20295;-33
2023/06/24 03:00:45;;;;;;;;;;;19.40;72.10;;;;;;5071759;28;20023;-32
2023/06/24 03:03:11;;;;;;;;;;;19.40;72.20;;;;;;5071607;28;19938;-35
2023/06/24 03:05:37;;;;;;;;;;;19.40;72.30;;;;;;5071662;28;19912;-34
2023/06/24 03:08:03;;;;;;;;;;;19.40;72.30;;;;;;5071577;28;19913;-36
2023/06/24 03:10:29;;;;;;;;;;;19.30;72.50;;;;;;5071623;28;19916;-33
2023/06/24 03:12:54;;;;;;;;;;;19.20;72.50;;;;;;5071627;28;19926;-33
2023/06/24 03:15:20;;;;;;;;;;;19.20;72.50;;;;;;5071666;28;19977;-32
2023/06/24 03:17:46;;;;;;;;;;;19.20;72.60;;;;;;5071518;28;19913;-32
2023/06/24 03:20:11;;;;;;;;;;;19.20;72.70;;;;;;5071549;28;19913;-33
2023/06/24 03:22:37;;;;;;;;;;;19.20;72.70;;;;;;5071396;28;19916;-33
2023/06/24 03:25:02;;;;;;;;;;;19.20;72.80;;;;;;5071483;28;20292;-35
2023/06/24 03:27:28;;;;;;;;;;;19.20;72.80;;;;;;5071323;28;20019;-34
2023/06/24 03:29:53;;;;;;;;;;;19.10;72.80;;;;;;5071497;28;20352;-34
2023/06/24 03:32:19;;;;;;;;;;;19.20;72.90;;;;;;5071252;28;20310;-31
2023/06/24 03:34:44;;;;;;;;;;;19.10;72.90;;;;;;5071428;28;19917;-43
2023/06/24 03:37:10;;;;;;;;;;;19.10;72.90;;;;;;5071764;28;20392;-33
2023/06/24 03:39:35;;;;;;;;;;;19.10;73.00;;;;;;5071464;28;19912;-32
2023/06/24 03:42:01;;;;;;;;;;;19.00;73.00;;;;;;5053310;28;19919;-32
2023/06/24 03:44:26;;;;;;;;;;;19.00;73.20;;;;;;5071471;28;19912;-34
2023/06/24 03:46:52;;;;;;;;;;;19.00;73.30;;;;;;5053293;28;19962;-34
2023/06/24 03:49:18;;;;;;;;;;;19.00;73.30;;;;;;5071329;28;19966;-33
2023/06/24 03:51:43;;;;;;;;;;;19.10;73.40;;;;;;5071338;28;19974;-33
2023/06/24 03:54:09;;;;;;;;;;;19.00;73.40;;;;;;5071258;28;19920;-35
2023/06/24 03:56:35;;;;;;;;;;;19.00;73.40;;;;;;5073659;28;19924;-33
2023/06/24 03:59:00;;;;;;;;;;;19.00;73.40;;;;;;5074928;28;20384;-32
2023/06/24 04:01:25;;;;;;;;;;;19.00;73.40;;;;;;5056821;28;19962;-32
2023/06/24 04:03:51;;;;;;;;;;;19.10;73.60;;;;;;5074663;28;19913;-34
2023/06/24 04:06:16;;;;;;;;;;;19.00;73.60;;;;;;5074857;28;19920;-35
2023/06/24 04:08:43;;;;;;;;;;;19.00;73.60;;;;;;5074680;28;19919;-34
2023/06/24 04:11:08;;;;;;;;;;;19.00;73.60;;;;;;5074548;28;20299;-32
2023/06/24 04:13:34;;;;;;;;;;;19.00;73.60;;;;;;5074866;28;19913;-31
2023/06/24 04:16:00;;;;;;;;;;;19.10;73.60;;;;;;5074410;28;19919;-32
2023/06/24 04:18:25;;;;;;;;;;;19.10;73.70;;;;;;5074321;28;19999;-32
2023/06/24 04:20:51;;;;;;;;;;;19.10;73.60;;;;;;5074367;28;20303;-33
2023/06/24 04:23:16;;;;;;;;;;;19.20;73.70;;;;;;5074253;28;19913;-34
2023/06/24 04:25:42;;;;;;;;;;;19.10;73.60;;;;;;5056201;28;20020;-33
2023/06/24 04:28:07;;;;;;;;;;;19.10;73.70;;;;;;5074270;28;19916;-31
2023/06/24 04:30:35;;;;;;;;;;;19.10;73.70;;;;;;5074202;28;20318;-36
2023/06/24 04:33:00;;;;;;;;;;;19.10;73.70;;;;;;5074148;28;20002;-32
2023/06/24 04:35:26;;;;;;;;;;;19.10;73.80;;;;;;5074075;28;20002;-32
2023/06/24 04:37:51;;;;;;;;;;;19.20;73.80;;;;;;5074095;28;19912;-33
2023/06/24 04:40:17;;;;;;;;;;;19.20;73.70;;;;;;5055992;28;20045;-31
2023/06/24 04:42:43;;;;;;;;;;;19.20;73.70;;;;;;5074047;28;19919;-31
2023/06/24 04:45:08;;;;;;;;;;;19.30;73.70;;;;;;5074027;28;19912;-39
2023/06/24 04:47:34;;;;;;;;;;;19.30;73.70;;;;;;5073924;28;19912;-31
2023/06/24 04:49:59;;;;;;;;;;;19.30;73.70;;;;;;5073847;28;20018;-37
2023/06/24 04:52:25;;;;;;;;;;;19.30;73.70;;;;;;5073731;28;19919;-32
2023/06/24 04:54:50;;;;;;;;;;;19.30;73.70;;;;;;5073812;28;19912;-31
2023/06/24 04:57:32;;;;;;;;;;;19.40;73.70;;;;;;5073972;28;19977;-32
2023/06/24 04:59:57;;;;;;;;;;;19.40;73.70;;;;;;5073606;28;19934;-31
2023/06/24 05:02:23;;;;;;;;;;;19.40;73.70;;;;;;5073688;28;20015;-31
2023/06/24 05:04:49;;;;;;;;;;;19.50;73.70;;;;;;5073837;28;20377;-40
2023/06/24 05:07:15;;;;;;;;;;;19.50;73.60;;;;;;5073177;28;19917;-31
2023/06/24 05:09:41;;;;;;;;;;;19.60;73.50;;;;;;5073407;28;19916;-32
2023/06/24 05:12:07;;;;;;;;;;;19.60;73.40;;;;;;5055403;28;19909;-34
2023/06/24 05:14:36;;;;;;;;;;;19.70;73.40;;;;;;5073445;28;19916;-33
2023/06/24 05:17:02;;;;;;;;;;;19.70;73.30;;;;;;5073257;28;20007;-32
2023/06/24 05:19:27;;;;;;;;;;;19.80;73.20;;;;;;5073306;28;20355;-36
2023/06/24 05:21:53;;;;;;;;;;;19.80;73.10;;;;;;5073197;28;20007;-36
2023/06/24 05:24:18;;;;;;;;;;;19.80;73.00;;;;;;5073017;28;20376;-33
2023/06/24 05:26:48;;;;;;;;;;;19.80;72.90;;;;;;5073162;28;20379;-34
2023/06/24 05:29:14;;;;;;;;;;;19.90;72.90;;;;;;5072979;28;19944;-37
2023/06/24 05:31:40;;;;;;;;;;;19.90;72.80;;;;;;5072931;28;20388;-31
2023/06/24 05:34:05;;;;;;;;;;;19.90;72.70;;;;;;5073046;28;20394;-38
2023/06/24 05:36:31;;;;;;;;;;;20.00;72.70;;;;;;5073020;28;19909;-38
2023/06/24 05:38:56;;;;;;;;;;;20.00;72.50;;;;;;5072940;28;20383;-37
2023/06/24 05:41:22;;;;;;;;;;;20.00;72.40;;;;;;5055221;28;19908;-32
2023/06/24 05:43:47;;;;;;;;;;;20.10;72.30;;;;;;5072744;28;20003;-33
2023/06/24 05:46:12;;;;;;;;;;;20.10;72.30;;;;;;5072727;28;20474;-34
2023/06/24 05:48:38;;;;;;;;;;;20.10;72.20;;;;;;5072728;28;19916;-37
2023/06/24 05:51:03;;;;;;;;;;;20.10;72.00;;;;;;5072562;28;20435;-30
2023/06/24 05:53:29;;;;;;;;;;;20.10;71.90;;;;;;5072501;28;20360;-33
2023/06/24 05:55:54;;;;;;;;;;;20.10;71.60;;;;;;5072531;28;20003;-36
2023/06/24 05:58:20;;;;;;;;;;;20.10;71.40;;;;;;5072593;28;19916;-33
2023/06/24 06:00:45;;;;;;;;;;;20.20;71.20;;;;;;5072496;28;20438;-37
2023/06/24 06:03:11;;;;;;;;;;;20.10;71.00;;;;;;5072646;28;19909;-37
2023/06/24 06:05:36;;;;;;;;;;;20.20;71.00;;;;;;5072326;28;19908;-33
2023/06/24 06:08:02;;;;;;;;;;;20.20;70.80;;;;;;5072649;28;19940;-39
2023/06/24 06:10:27;;;;;;;;;;;20.30;70.80;;;;;;5072300;28;19958;-32
2023/06/24 06:12:53;;;;;;;;;;;20.30;70.70;;;;;;5072231;28;19909;-37
2023/06/24 06:15:19;;;;;;;;;;;20.30;70.60;;;;;;5072223;28;19955;-32
2023/06/24 06:17:45;;;;;;;;;;;20.30;70.50;;;;;;5071888;28;20353;-36
2023/06/24 06:20:11;;;;;;;;;;;20.40;70.40;;;;;;5072077;28;19996;-37
2023/06/24 06:22:37;;;;;;;;;;;20.30;70.40;;;;;;5071945;28;19944;-33
2023/06/24 06:25:06;;;;;;;;;;;20.40;70.40;;;;;;5072024;28;19909;-32
2023/06/24 06:27:31;;;;;;;;;;;20.40;70.30;;;;;;5071924;28;19920;-32
2023/06/24 06:29:57;;;;;;;;;;;20.50;70.30;;;;;;5072066;28;19920;-41
2023/06/24 06:32:22;;;;;;;;;;;20.50;70.20;;;;;;5071969;28;19909;-31
2023/06/24 06:34:48;;;;;;;;;;;20.50;70.00;;;;;;5071893;28;19912;-36
2023/06/24 06:37:13;;;;;;;;;;;20.50;70.00;;;;;;5072063;28;19915;-31
2023/06/24 06:39:39;;;;;;;;;;;20.60;69.90;;;;;;5071962;28;20379;-32
2023/06/24 06:42:04;;;;;;;;;;;20.60;69.70;;;;;;5071967;28;19912;-30
2023/06/24 06:44:30;;;;;;;;;;;20.70;69.60;;;;;;5071861;28;19966;-31
2023/06/24 06:46:55;;;;;;;;;;;20.70;69.50;;;;;;5071944;28;19908;-34
2023/06/24 06:49:22;;;;;;;;;;;20.80;69.30;;;;;;5071958;28;19915;-31
2023/06/24 06:51:47;;;;;;;;;;;20.70;69.10;;;;;;5071797;28;20371;-38
2023/06/24 06:54:13;;;;;;;;;;;20.80;68.90;;;;;;5071788;28;19955;-31
2023/06/24 06:56:39;;;;;;;;;;;20.80;68.90;;;;;;5053778;28;20360;-32
2023/06/24 06:59:05;;;;;;;;;;;20.80;69.00;;;;;;5071775;28;19920;-30
2023/06/24 07:01:30;;;;;;;;;;;20.80;68.90;;;;;;5071838;28;19909;-31
2023/06/24 07:03:56;;;;;;;;;;;20.90;68.90;;;;;;5071681;28;19909;-31
2023/06/24 07:06:21;;;;;;;;;;;20.90;68.90;;;;;;5071633;28;20038;-31
2023/06/24 07:08:47;;;;;;;;;;;21.00;68.90;;;;;;5071746;28;19908;-41
2023/06/24 07:11:12;;;;;;;;;;;21.10;68.80;;;;;;5071690;28;19913;-32
2023/06/24 07:13:38;;;;;;;;;;;21.10;68.60;;;;;;5071599;28;19958;-34
2023/06/24 07:16:03;;;;;;;;;;;21.20;68.50;;;;;;5071616;28;20364;-32
2023/06/24 07:18:30;;;;;;;;;;;21.30;68.40;;;;;;5071573;28;19909;-34
2023/06/24 07:20:56;;;;;;;;;;;21.30;68.30;;;;;;5071535;28;19912;-32
2023/06/24 07:23:21;;;;;;;;;;;21.40;68.10;;;;;;5053391;28;20430;-36
2023/06/24 07:25:47;;;;;;;;;;;21.40;68.00;;;;;;5071153;28;19923;-37
2023/06/24 07:28:12;;;;;;;;;;;21.50;68.00;;;;;;5071425;28;19909;-34
2023/06/24 07:30:38;;;;;;;;;;;21.50;67.90;;;;;;5073855;28;20007;-34
2023/06/24 07:33:05;;;;;;;;;;;21.60;67.80;;;;;;5057281;28;20314;-32
2023/06/24 07:35:32;;;;;;;;;;;21.60;67.70;;;;;;5075165;28;20391;-33
2023/06/24 07:37:57;;;;;;;;;;;21.70;67.60;;;;;;5075149;28;19915;-33
2023/06/24 07:40:23;;;;;;;;;;;21.70;67.50;;;;;;5075070;28;19912;-33
2023/06/24 07:42:48;;;;;;;;;;;21.80;67.50;;;;;;5075123;28;19908;-31
2023/06/24 07:45:14;;;;;;;;;;;21.80;67.20;;;;;;5057007;28;20275;-31
2023/06/24 07:47:39;;;;;;;;;;;21.90;67.10;;;;;;5075266;28;19912;-38
2023/06/24 07:50:06;;;;;;;;;;;22.00;67.10;;;;;;5075121;28;19917;-34
2023/06/24 07:52:31;;;;;;;;;;;22.00;66.90;;;;;;5075096;28;19931;-38
2023/06/24 07:54:57;;;;;;;;;;;22.10;66.60;;;;;;5074664;28;20431;-34
2023/06/24 07:57:22;;;;;;;;;;;22.10;66.50;;;;;;5075015;28;19915;-29
2023/06/24 07:59:48;;;;;;;;;;;22.20;66.40;;;;;;5074938;28;19915;-29
2023/06/24 08:02:13;;;;;;;;;;;22.20;65.80;;;;;;5074646;28;20004;-29
2023/06/24 08:04:39;;;;;;;;;;;22.20;65.00;;;;;;5074840;28;20457;-31
2023/06/24 08:07:04;;;;;;;;;;;22.20;64.40;;;;;;5075009;28;19913;-32
2023/06/24 08:09:30;;;;;;;;;;;22.20;64.40;;;;;;5074659;28;19955;-33
2023/06/24 08:11:55;;;;;;;;;;;22.30;64.50;;;;;;5074492;28;20286;-32
2023/06/24 08:14:21;;;;;;;;;;;22.30;64.00;;;;;;5074493;28;19912;-45
2023/06/24 08:16:46;;;;;;;;;;;22.40;63.60;;;;;;5074536;28;19916;-32
2023/06/24 08:19:12;;;;;;;;;;;22.40;63.80;;;;;;5074352;28;19916;-31
2023/06/24 08:21:37;;;;;;;;;;;22.50;63.80;;;;;;5074671;28;20287;-28
2023/06/24 08:24:03;;;;;;;;;;;22.50;63.60;;;;;;5074218;28;19916;-29
2023/06/24 08:26:29;;;;;;;;;;;22.50;63.30;;;;;;5074095;28;20022;-33
2023/06/24 08:28:54;;;;;;;;;;;22.60;63.10;;;;;;5074204;28;20016;-31
2023/06/24 08:31:22;;;;;;;;;;;22.60;62.40;;;;;;5074119;28;19919;-30
2023/06/24 08:33:51;;;;;;;;;;;22.70;61.60;;;;;;5074229;28;19948;-29
2023/06/24 08:36:17;;;;;;;;;;;22.80;60.70;;;;;;5074123;28;19970;-29
2023/06/24 08:38:42;;;;;;;;;;;22.80;61.30;;;;;;5074082;28;19908;-31
2023/06/24 08:41:07;;;;;;;;;;;23.00;61.00;;;;;;5073396;28;19908;-29
2023/06/24 08:43:33;;;;;;;;;;;23.10;60.80;;;;;;5074369;28;19912;-34
2023/06/24 08:45:59;;;;;;;;;;;23.20;60.70;;;;;;5074277;28;20444;-40
2023/06/24 08:48:25;;;;;;;;;;;23.30;60.60;;;;;;5073938;28;19915;-31
2023/06/24 08:50:51;;;;;;;;;;;23.50;60.40;;;;;;5073974;28;20340;-29
2023/06/24 08:53:18;;;;;;;;;;;23.50;59.90;;;;;;5074072;28;20272;-30
2023/06/24 08:55:44;;;;;;;;;;;23.50;59.20;;;;;;5073871;28;20255;-34
2023/06/24 08:58:09;;;;;;;;;;;23.60;58.90;;;;;;5073833;28;19995;-37
2023/06/24 09:00:35;;;;;;;;;;;23.70;58.30;;;;;;5073889;28;19912;-29
2023/06/24 09:03:00;;;;;;;;;;;23.70;57.10;;;;;;5073774;28;19909;-31
2023/06/24 09:05:26;;;;;;;;;;;23.70;57.70;;;;;;5073576;28;19908;-30
2023/06/24 09:07:52;;;;;;;;;;;23.80;57.40;;;;;;5073335;28;19908;-29
2023/06/24 09:10:33;;;;;;;;;;;23.80;57.50;;;;;;5073772;28;19999;-28
2023/06/24 09:12:59;;;;;;;;;;;23.90;57.50;;;;;;5073316;28;19908;-29
2023/06/24 09:15:29;;;;;;;;;;;24.00;57.70;;;;;;5073302;28;19909;-30
2023/06/24 09:17:54;;;;;;;;;;;24.10;57.50;;;;;;5055256;28;19971;-29
2023/06/24 09:20:21;;;;;;;;;;;24.10;57.50;;;;;;5073305;28;19948;-31
2023/06/24 09:22:47;;;;;;;;;;;24.30;57.40;;;;;;5073179;28;19920;-30
2023/06/24 09:25:18;;;;;;;;;;;24.30;57.00;;;;;;5073377;28;19909;-29
2023/06/24 09:27:51;;;;;;;;;;;24.40;57.20;;;;;;5073333;28;19943;-29
2023/06/24 09:30:19;;;;;;;;;;;24.50;56.60;;;;;;5072890;28;20039;-30
2023/06/24 09:32:45;;;;;;;;;;;24.50;56.40;;;;;;5073537;28;19909;-30
2023/06/24 09:35:10;;;;;;;;;;;24.50;55.80;;;;;;5072854;28;20027;-31
2023/06/24 09:37:35;;;;;;;;;;;24.60;56.40;;;;;;5072726;28;20001;-30
2023/06/24 09:40:05;;;;;;;;;;;24.70;56.60;;;;;;5054823;28;19985;-31
2023/06/24 09:42:30;;;;;;;;;;;24.70;56.60;;;;;;5072685;28;19912;-35
2023/06/24 09:44:56;;;;;;;;;;;24.70;56.00;;;;;;5054764;28;19958;-41
2023/06/24 09:47:24;;;;;;;;;;;24.70;55.80;;;;;;5072746;28;19947;-29
2023/06/24 09:49:51;;;;;;;;;;;24.70;56.20;;;;;;5072535;28;19920;-31
2023/06/24 09:52:18;;;;;;;;;;;24.70;55.80;;;;;;5072770;28;19931;-30
2023/06/24 09:54:44;;;;;;;;;;;24.60;55.80;;;;;;5071806;28;19924;-31
2023/06/24 09:57:10;;;;;;;;;;;24.60;55.80;;;;;;5072531;28;19909;-30
2023/06/24 09:59:36;;;;;;;;;;;24.60;55.20;;;;;;5072805;28;19916;-32
2023/06/24 10:02:03;;;;;;;;;;;24.50;55.30;;;;;;5072328;28;19915;-32
2023/06/24 10:04:29;;;;;;;;;;;24.50;55.70;;;;;;5072429;28;19916;-29
2023/06/24 10:06:55;;;;;;;;;;;24.50;55.60;;;;;;5072491;28;20059;-28
2023/06/24 10:09:20;;;;;;;;;;;24.50;55.40;;;;;;5054326;28;19908;-32
2023/06/24 10:11:47;;;;;;;;;;;24.50;55.70;;;;;;5072227;28;19912;-30
2023/06/24 10:14:13;;;;;;;;;;;24.50;55.80;;;;;;5072485;28;19915;-34
2023/06/24 10:16:40;;;;;;;;;;;24.50;55.80;;;;;;5072052;28;19979;-30
2023/06/24 10:19:05;;;;;;;;;;;24.60;55.90;;;;;;5072173;28;19923;-30
2023/06/24 10:21:49;;;;;;;;;;;24.70;55.50;;;;;;5072611;28;20252;-29
2023/06/24 10:24:30;;;;;;;;;;;24.70;55.40;;;;;;5072350;28;19916;-30
2023/06/24 10:27:00;;;;;;;;;;;24.70;55.60;;;;;;5071905;28;19980;-32
2023/06/24 10:29:35;;;;;;;;;;;24.70;55.60;;;;;;5072434;28;19946;-29
2023/06/24 10:32:02;;;;;;;;;;;24.80;55.70;;;;;;5072408;28;19920;-30
2023/06/24 10:34:30;;;;;;;;;;;24.80;55.30;;;;;;5071438;28;20027;-29
2023/06/24 10:36:57;;;;;;;;;;;24.90;55.40;;;;;;5071982;28;19912;-29
2023/06/24 10:39:42;;;;;;;;;;;24.90;55.60;;;;;;5071838;28;19919;-29
2023/06/24 10:42:25;;;;;;;;;;;25.00;55.50;;;;;;5072151;28;19908;-34
2023/06/24 10:44:51;;;;;;;;;;;25.10;55.60;;;;;;5071831;28;19916;-29
2023/06/24 10:47:17;;;;;;;;;;;25.20;55.50;;;;;;5071968;28;19908;-40
2023/06/24 10:49:42;;;;;;;;;;;25.20;55.50;;;;;;5053682;28;19951;-28
2023/06/24 10:52:11;;;;;;;;;;;25.30;55.60;;;;;;5071831;28;19915;-29
2023/06/24 10:54:37;;;;;;;;;;;25.40;55.50;;;;;;5071780;28;19954;-28
2023/06/24 10:57:03;;;;;;;;;;;25.40;55.50;;;;;;5071733;28;20286;-30
2023/06/24 10:59:33;;;;;;;;;;;25.40;55.40;;;;;;5053688;28;19995;-31
2023/06/24 11:01:59;;;;;;;;;;;25.50;55.30;;;;;;5071572;28;19931;-33
2023/06/24 11:04:25;;;;;;;;;;;25.60;54.90;;;;;;5072199;28;19908;-35
2023/06/24 11:07:00;;;;;;;;;;;25.60;54.90;;;;;;5057617;28;19995;-30
2023/06/24 11:09:26;;;;;;;;;;;25.60;55.00;;;;;;5075876;28;20014;-28
2023/06/24 11:11:52;;;;;;;;;;;25.70;55.10;;;;;;5075734;28;20103;-31
2023/06/24 11:14:19;;;;;;;;;;;25.70;55.00;;;;;;5075655;28;20402;-32
2023/06/24 11:16:47;;;;;;;;;;;25.80;54.60;;;;;;5075393;28;19999;-31
2023/06/24 11:19:12;;;;;;;;;;;25.80;54.10;;;;;;5075476;28;19909;-32
2023/06/24 11:21:38;;;;;;;;;;;25.80;54.20;;;;;;5075444;28;20357;-45
2023/06/24 11:24:04;;;;;;;;;;;25.90;54.50;;;;;;5075386;28;19915;-37
2023/06/24 11:26:29;;;;;;;;;;;25.90;54.30;;;;;;5075295;28;19966;-29
2023/06/24 11:28:55;;;;;;;;;;;26.00;54.50;;;;;;5057311;28;19912;-29
2023/06/24 11:31:27;;;;;;;;;;;26.10;55.00;;;;;;5075175;28;19912;-32
2023/06/24 11:33:52;;;;;;;;;;;26.10;54.30;;;;;;5075286;28;19908;-32
2023/06/24 11:36:22;;;;;;;;;;;26.20;54.40;;;;;;5075160;28;19931;-30
2023/06/24 11:38:47;;;;;;;;;;;26.30;54.20;;;;;;5075080;28;19945;-29
2023/06/24 11:41:13;;;;;;;;;;;26.30;54.30;;;;;;5074454;28;19908;-29
2023/06/24 11:43:45;;;;;;;;;;;26.40;54.30;;;;;;5074848;28;19953;-30
2023/06/24 11:46:10;;;;;;;;;;;26.50;54.40;;;;;;5074668;28;19944;-31
2023/06/24 11:48:40;;;;;;;;;;;26.70;54.60;;;;;;5074831;28;20359;-34
2023/06/24 11:51:12;;;;;;;;;;;26.80;54.50;;;;;;5074631;28;19919;-41
2023/06/24 11:53:42;;;;;;;;;;;26.80;54.40;;;;;;5075101;28;19909;-34
2023/06/24 11:56:08;;;;;;;;;;;26.90;54.50;;;;;;5074995;28;20383;-36
2023/06/24 11:58:35;;;;;;;;;;;26.90;54.30;;;;;;5074812;28;19916;-33
2023/06/24 12:01:00;;;;;;;;;;;27.00;53.90;;;;;;5074693;28;19915;-32
2023/06/24 12:03:27;;;;;;;;;;;27.00;53.40;;;;;;5074669;28;20291;-30
2023/06/24 12:05:53;;;;;;;;;;;27.00;52.50;;;;;;5074625;28;19920;-31
2023/06/24 12:08:18;;;;;;;;;;;27.00;52.90;;;;;;5074610;28;19908;-35
2023/06/24 12:10:44;;;;;;;;;;;27.00;52.90;;;;;;5074420;28;19912;-34
2023/06/24 12:13:09;;;;;;;;;;;27.00;53.10;;;;;;5074806;28;19944;-37
2023/06/24 12:15:35;;;;;;;;;;;27.10;53.10;;;;;;5074168;28;19920;-36
2023/06/24 12:18:01;;;;;;;;;;;27.20;52.10;;;;;;5074058;28;19915;-36
2023/06/24 12:20:28;;;;;;;;;;;27.30;51.80;;;;;;5074600;28;19908;-36
2023/06/24 12:22:53;;;;;;;;;;;27.20;51.20;;;;;;5074219;28;20392;-30
2023/06/24 12:25:19;;;;;;;;;;;27.30;51.40;;;;;;5074145;28;20003;-29
2023/06/24 12:27:45;;;;;;;;;;;27.30;51.80;;;;;;5056231;28;19916;-30
2023/06/24 12:30:11;;;;;;;;;;;27.40;52.00;;;;;;5074119;28;19913;-30
2023/06/24 12:32:37;;;;;;;;;;;27.50;51.50;;;;;;5074349;28;19962;-29
2023/06/24 12:35:03;;;;;;;;;;;27.60;51.90;;;;;;5074450;28;20319;-32
2023/06/24 12:37:32;;;;;;;;;;;27.70;51.90;;;;;;5074017;28;19909;-35
2023/06/24 12:39:58;;;;;;;;;;;27.80;51.80;;;;;;5073880;28;19934;-33
2023/06/24 12:42:24;;;;;;;;;;;27.90;51.80;;;;;;5073831;28;19917;-32
2023/06/24 12:44:50;;;;;;;;;;;28.00;51.60;;;;;;5073786;28;20328;-28
2023/06/24 12:47:15;;;;;;;;;;;28.00;51.20;;;;;;5073717;28;19951;-33
2023/06/24 12:49:41;;;;;;;;;;;28.10;51.20;;;;;;5073579;28;19958;-41
2023/06/24 12:52:06;;;;;;;;;;;28.10;51.20;;;;;;5073669;28;19915;-31
2023/06/24 12:54:32;;;;;;;;;;;28.20;50.50;;;;;;5074014;28;20383;-37
2023/06/24 12:56:57;;;;;;;;;;;28.30;50.70;;;;;;5073849;28;19916;-32
2023/06/24 12:59:23;;;;;;;;;;;28.30;50.70;;;;;;5073518;28;19977;-29
2023/06/24 13:01:48;;;;;;;;;;;28.40;50.70;;;;;;5073684;28;19908;-32
2023/06/24 13:04:14;;;;;;;;;;;28.60;50.80;;;;;;5073602;28;19915;-32
2023/06/24 13:06:40;;;;;;;;;;;28.70;50.70;;;;;;5073283;28;20038;-32
2023/06/24 13:09:05;;;;;;;;;;;28.80;50.50;;;;;;5073355;28;19919;-31
2023/06/24 13:11:30;;;;;;;;;;;28.90;50.60;;;;;;5073347;28;19959;-41
2023/06/24 13:13:56;;;;;;;;;;;29.10;50.50;;;;;;5073264;28;20359;-31
2023/06/24 13:16:21;;;;;;;;;;;29.30;50.30;;;;;;5073329;28;20360;-30
2023/06/24 13:18:47;;;;;;;;;;;29.40;50.30;;;;;;5073270;28;20294;-33
2023/06/24 13:21:12;;;;;;;;;;;29.60;50.30;;;;;;5073192;28;19908;-34
2023/06/24 13:23:39;;;;;;;;;;;29.70;49.50;;;;;;5073371;28;20340;-33
2023/06/24 13:26:05;;;;;;;;;;;29.80;49.70;;;;;;5072988;28;19928;-33
2023/06/24 13:28:33;;;;;;;;;;;29.90;49.70;;;;;;5072549;28;20401;-40
2023/06/24 13:30:58;;;;;;;;;;;30.00;49.80;;;;;;5072880;28;20015;-35
2023/06/24 13:33:24;;;;;;;;;;;30.10;49.60;;;;;;5073027;28;20361;-31
2023/06/24 13:35:50;;;;;;;;;;;30.20;49.50;;;;;;5072787;28;20003;-35
2023/06/24 13:38:16;;;;;;;;;;;30.30;49.50;;;;;;5072851;28;20337;-30
2023/06/24 13:40:41;;;;;;;;;;;30.50;49.50;;;;;;5072699;28;19955;-31
2023/06/24 13:43:06;;;;;;;;;;;30.60;49.20;;;;;;5072609;28;19978;-30
2023/06/24 13:45:32;;;;;;;;;;;30.70;49.20;;;;;;5073117;28;20356;-36
2023/06/24 13:47:57;;;;;;;;;;;30.80;49.20;;;;;;5072531;28;19971;-32
2023/06/24 13:50:23;;;;;;;;;;;30.90;48.90;;;;;;5072338;28;19966;-30
2023/06/24 13:52:48;;;;;;;;;;;31.00;48.90;;;;;;5072776;28;19953;-29
2023/06/24 13:55:14;;;;;;;;;;;31.10;48.80;;;;;;5072549;28;19919;-32
2023/06/24 13:57:39;;;;;;;;;;;31.20;48.70;;;;;;5072490;28;20392;-29
2023/06/24 14:00:06;;;;;;;;;;;31.30;48.00;;;;;;5072358;28;20368;-32
2023/06/24 14:02:32;;;;;;;;;;;31.40;48.10;;;;;;5072186;28;19909;-30
2023/06/24 14:04:57;;;;;;;;;;;31.40;48.20;;;;;;5072170;28;20253;-33
2023/06/24 14:07:23;;;;;;;;;;;31.40;47.80;;;;;;5072477;28;19956;-31
2023/06/24 14:09:49;;;;;;;;;;;31.50;47.20;;;;;;5072359;28;20363;-33
2023/06/24 14:12:14;;;;;;;;;;;31.40;47.50;;;;;;5072403;28;19920;-30